createdAt,value
2018-07-26T00:01:41.629Z,7.70
2018-07-26T00:04:10.084Z,7.60
2018-07-26T00:06:38.573Z,9.13
2018-07-26T00:09:09.462Z,8.97
2018-07-26T00:11:37.593Z,8.50
2018-07-26T00:14:06.170Z,8.33
2018-07-26T00:16:34.743Z,8.60
2018-07-26T00:19:11.173Z,7.90
2018-07-26T00:21:39.667Z,9.10
2018-07-26T00:24:07.804Z,8.20
2018-07-26T00:26:36.277Z,11.90
2018-07-26T00:29:04.737Z,8.83
2018-07-26T00:31:33.181Z,8.57
2018-07-26T00:34:01.590Z,7.80
2018-07-26T00:36:30.135Z,8.70
2018-07-26T00:38:58.386Z,8.87
2018-07-26T00:41:27.048Z,8.10
2018-07-26T00:43:55.452Z,8.50
2018-07-26T00:46:23.889Z,7.90
2018-07-26T00:48:52.362Z,8.23
2018-07-26T00:51:20.839Z,7.43
2018-07-26T00:53:49.281Z,7.50
2018-07-26T00:56:17.696Z,7.60
2018-07-26T00:58:46.137Z,7.60
2018-07-26T01:01:14.601Z,6.73
2018-07-26T01:03:43.054Z,7.07
2018-07-26T01:06:11.501Z,6.93
2018-07-26T01:08:39.957Z,7.50
2018-07-26T01:11:08.437Z,6.40
2018-07-26T01:13:36.945Z,7.10
2018-07-26T01:16:05.978Z,6.93
2018-07-26T01:18:34.441Z,6.57
2018-07-26T01:21:03.149Z,6.87
2018-07-26T01:23:31.685Z,6.50
2018-07-26T01:26:00.110Z,6.33
2018-07-26T01:28:28.562Z,6.00
2018-07-26T01:30:57.041Z,5.67
2018-07-26T01:33:25.498Z,5.93
2018-07-26T01:35:54.001Z,5.57
2018-07-26T01:38:22.424Z,5.40
2018-07-26T01:40:50.914Z,5.70
2018-07-26T01:43:56.533Z,6.50
2018-07-26T01:46:26.141Z,5.43
2018-07-26T01:48:54.570Z,5.63
2018-07-26T01:51:23.045Z,5.77
2018-07-26T01:53:51.713Z,5.57
2018-07-26T01:56:20.145Z,5.27
2018-07-26T01:58:48.648Z,5.90
2018-07-26T02:01:17.069Z,5.70
2018-07-26T02:03:45.533Z,6.33
2018-07-26T02:06:13.640Z,6.73
2018-07-26T02:08:42.074Z,6.47
2018-07-26T02:11:10.570Z,6.97
2018-07-26T02:13:39.009Z,7.03
2018-07-26T02:16:07.466Z,6.60
2018-07-26T02:18:35.910Z,7.33
2018-07-26T02:21:04.370Z,6.63
2018-07-26T02:23:32.874Z,8.30
2018-07-26T02:26:00.999Z,8.50
2018-07-26T02:28:29.510Z,8.70
2018-07-26T02:30:58.046Z,9.87
2018-07-26T02:33:26.460Z,8.97
2018-07-26T02:35:54.904Z,8.70
2018-07-26T02:38:23.395Z,9.53
2018-07-26T02:40:51.859Z,9.00
2018-07-26T02:43:20.285Z,9.03
2018-07-26T02:45:48.819Z,9.20
2018-07-26T02:48:17.279Z,9.10
2018-07-26T02:50:45.743Z,8.37
2018-07-26T02:53:14.170Z,8.47
2018-07-26T02:55:42.647Z,8.70
2018-07-26T02:58:11.097Z,9.60
2018-07-26T03:00:39.562Z,10.13
2018-07-26T03:03:08.289Z,8.77
2018-07-26T03:05:36.752Z,9.13
2018-07-26T03:08:04.878Z,9.70
2018-07-26T03:10:33.341Z,8.50
2018-07-26T03:13:01.785Z,9.03
2018-07-26T03:15:30.263Z,9.33
2018-07-26T03:17:58.715Z,8.63
2018-07-26T03:20:27.217Z,9.20
2018-07-26T03:22:55.651Z,9.80
2018-07-26T03:25:24.132Z,9.77
2018-07-26T03:27:52.637Z,10.30
2018-07-26T03:30:21.154Z,10.73
2018-07-26T03:32:49.610Z,10.43
2018-07-26T03:35:18.043Z,9.97
2018-07-26T03:37:46.477Z,9.63
2018-07-26T03:40:15.154Z,10.20
2018-07-26T03:42:43.616Z,10.83
2018-07-26T03:45:12.063Z,11.03
2018-07-26T03:47:40.507Z,10.83
2018-07-26T03:50:09.009Z,10.00
2018-07-26T03:52:37.521Z,9.77
2018-07-26T03:55:05.989Z,10.70
2018-07-26T03:57:34.444Z,9.60
2018-07-26T04:00:02.932Z,10.43
2018-07-26T04:02:31.379Z,10.30
2018-07-26T04:04:59.884Z,11.50
2018-07-26T04:07:28.337Z,12.53
2018-07-26T04:09:56.780Z,10.17
2018-07-26T04:12:24.934Z,12.10
2018-07-26T04:14:53.366Z,10.60
2018-07-26T04:17:21.835Z,11.27
2018-07-26T04:19:50.242Z,11.30
2018-07-26T04:22:18.706Z,11.70
2018-07-26T04:24:47.158Z,10.80
2018-07-26T04:27:15.681Z,11.13
2018-07-26T04:29:44.100Z,12.63
2018-07-26T04:32:12.871Z,11.80
2018-07-26T04:34:41.594Z,11.20
2018-07-26T04:37:10.062Z,10.87
2018-07-26T04:39:38.488Z,11.47
2018-07-26T04:42:06.958Z,10.50
2018-07-26T04:44:35.413Z,10.90
2018-07-26T04:47:04.113Z,11.70
2018-07-26T04:49:32.522Z,9.80
2018-07-26T04:52:00.997Z,10.27
2018-07-26T04:54:29.405Z,10.57
2018-07-26T04:56:57.855Z,9.60
2018-07-26T04:59:26.425Z,10.00
2018-07-26T05:04:29.441Z,10.50
2018-07-26T05:06:58.130Z,10.73
2018-07-26T05:09:26.616Z,9.00
2018-07-26T05:11:55.097Z,10.53
2018-07-26T05:14:23.754Z,10.83
2018-07-26T05:16:52.204Z,9.07
2018-07-26T05:19:20.669Z,10.10
2018-07-26T05:21:49.106Z,10.40
2018-07-26T05:24:17.572Z,9.87
2018-07-26T05:26:46.019Z,10.43
2018-07-26T05:29:14.479Z,10.87
2018-07-26T05:31:42.975Z,9.83
2018-07-26T05:34:11.409Z,8.97
2018-07-26T05:36:39.983Z,10.43
2018-07-26T05:39:10.504Z,10.03
2018-07-26T05:41:39.443Z,9.80
2018-07-26T05:44:07.924Z,9.80
2018-07-26T05:46:36.601Z,10.13
2018-07-26T05:49:04.831Z,9.37
2018-07-26T05:51:33.325Z,9.47
2018-07-26T05:54:01.773Z,9.30
2018-07-26T05:56:30.230Z,9.70
2018-07-26T05:58:58.376Z,9.00
2018-07-26T06:01:26.843Z,8.40
2018-07-26T06:03:55.472Z,8.83
2018-07-26T06:06:23.984Z,8.30
2018-07-26T06:08:52.481Z,7.90
2018-07-26T06:11:20.958Z,9.07
2018-07-26T06:13:49.411Z,8.37
2018-07-26T06:16:17.812Z,8.80
2018-07-26T06:18:46.266Z,9.60
2018-07-26T06:21:14.974Z,10.80
2018-07-26T06:23:43.468Z,10.57
2018-07-26T06:26:11.917Z,9.90
2018-07-26T06:28:40.365Z,11.70
2018-07-26T06:31:08.854Z,11.17
2018-07-26T06:33:37.406Z,9.80
2018-07-26T06:36:05.548Z,10.00
2018-07-26T06:38:34.126Z,10.10
2018-07-26T06:41:02.565Z,8.60
2018-07-26T06:43:31.309Z,9.73
2018-07-26T06:45:59.754Z,9.63
2018-07-26T06:48:28.212Z,9.37
2018-07-26T06:50:56.668Z,9.37
2018-07-26T06:53:25.146Z,9.30
2018-07-26T06:55:53.583Z,9.10
2018-07-26T06:58:22.425Z,10.50
2018-07-26T07:00:50.887Z,11.10
2018-07-26T07:03:19.344Z,9.07
2018-07-26T07:05:47.840Z,9.70
2018-07-26T07:08:16.329Z,9.40
2018-07-26T07:10:44.873Z,9.10
2018-07-26T07:13:13.303Z,8.77
2018-07-26T07:15:41.767Z,8.77
2018-07-26T07:18:10.232Z,9.10
2018-07-26T07:20:38.486Z,8.10
2018-07-26T07:23:06.926Z,8.47
2018-07-26T07:25:35.398Z,8.57
2018-07-26T07:28:03.879Z,7.60
2018-07-26T07:30:32.384Z,7.30
2018-07-26T07:33:00.873Z,7.80
2018-07-26T07:35:29.648Z,7.37
2018-07-26T07:37:58.125Z,6.77
2018-07-26T07:40:26.873Z,6.37
2018-07-26T07:42:55.277Z,6.90
2018-07-26T07:45:24.453Z,7.07
2018-07-26T07:47:52.617Z,7.20
2018-07-26T07:50:21.057Z,7.13
2018-07-26T07:52:49.617Z,7.67
2018-07-26T07:55:18.103Z,7.60
2018-07-26T07:57:46.792Z,6.47
2018-07-26T08:00:15.265Z,7.67
2018-07-26T08:02:43.706Z,7.50
2018-07-26T08:05:12.264Z,7.60
2018-07-26T08:07:40.661Z,7.20
2018-07-26T08:10:10.573Z,7.10
2018-07-26T08:12:39.195Z,7.13
2018-07-26T08:15:08.817Z,7.50
2018-07-26T08:17:37.282Z,6.20
2018-07-26T08:20:06.126Z,6.40
2018-07-26T08:22:34.601Z,6.20
2018-07-26T08:25:03.114Z,6.50
2018-07-26T08:27:31.594Z,6.40
2018-07-26T08:30:06.720Z,5.70
2018-07-26T08:32:35.243Z,6.10
2018-07-26T08:35:03.640Z,6.50
2018-07-26T08:37:32.307Z,6.33
2018-07-26T08:40:00.449Z,6.07
2018-07-26T08:42:28.902Z,5.63
2018-07-26T08:44:57.589Z,6.03
2018-07-26T08:47:26.058Z,5.43
2018-07-26T08:49:54.557Z,5.30
2018-07-26T08:52:23.009Z,5.70
2018-07-26T08:54:51.144Z,5.23
2018-07-26T08:57:19.595Z,5.77
2018-07-26T08:59:48.057Z,4.30
2018-07-26T09:02:16.513Z,5.03
2018-07-26T09:04:44.962Z,5.40
2018-07-26T09:07:13.393Z,5.33
2018-07-26T09:09:41.493Z,5.93
2018-07-26T09:12:09.986Z,4.20
2018-07-26T09:14:38.393Z,4.50
2018-07-26T09:17:06.838Z,4.40
2018-07-26T09:19:35.258Z,4.47
2018-07-26T09:22:03.725Z,4.40
2018-07-26T09:24:32.432Z,5.30
2018-07-26T09:27:00.845Z,4.77
2018-07-26T09:29:28.988Z,5.10
2018-07-26T09:31:57.445Z,4.87
2018-07-26T09:34:25.889Z,4.37
2018-07-26T09:36:54.342Z,4.73
2018-07-26T09:39:22.478Z,4.77
2018-07-26T09:41:50.941Z,4.73
2018-07-26T09:44:19.381Z,4.30
2018-07-26T09:46:47.497Z,4.30
2018-07-26T09:49:15.984Z,3.60
2018-07-26T09:51:44.459Z,4.50
2018-07-26T09:54:12.908Z,3.90
2018-07-26T09:56:41.013Z,4.50
2018-07-26T09:59:09.618Z,4.43
2018-07-26T10:01:41.242Z,4.40
2018-07-26T10:04:09.883Z,4.50
2018-07-26T10:06:38.361Z,3.73
2018-07-26T10:09:09.533Z,4.80
2018-07-26T10:11:38.038Z,4.23
2018-07-26T10:14:06.501Z,4.93
2018-07-26T10:16:34.951Z,4.60
2018-07-26T10:19:03.604Z,3.90
2018-07-26T10:21:32.073Z,4.00
2018-07-26T10:24:00.502Z,3.53
2018-07-26T10:26:28.959Z,4.47
2018-07-26T10:28:57.410Z,3.33
2018-07-26T10:31:25.857Z,3.90
2018-07-26T10:33:54.335Z,4.17
2018-07-26T10:36:22.838Z,4.27
2018-07-26T10:38:51.290Z,3.50
2018-07-26T10:41:19.750Z,3.60
2018-07-26T10:43:48.201Z,4.07
2018-07-26T10:46:16.692Z,3.80
2018-07-26T10:48:45.137Z,4.03
2018-07-26T10:51:13.286Z,3.40
2018-07-26T10:53:41.750Z,4.07
2018-07-26T10:56:11.329Z,3.83
2018-07-26T10:58:39.897Z,4.60
2018-07-26T11:01:08.563Z,3.47
2018-07-26T11:03:37.061Z,3.60
2018-07-26T11:06:05.613Z,3.63
2018-07-26T11:08:34.029Z,3.50
2018-07-26T11:11:02.157Z,2.80
2018-07-26T11:13:30.604Z,2.80
2018-07-26T11:15:59.041Z,3.37
2018-07-26T11:18:27.521Z,3.30
2018-07-26T11:20:56.188Z,2.93
2018-07-26T11:23:24.914Z,2.83
2018-07-26T11:25:53.028Z,2.63
2018-07-26T11:28:21.462Z,2.87
2018-07-26T11:30:49.933Z,2.50
2018-07-26T11:33:18.064Z,3.00
2018-07-26T11:35:46.536Z,3.50
2018-07-26T11:38:14.971Z,2.97
2018-07-26T11:40:43.482Z,3.03
2018-07-26T11:43:11.935Z,2.93
2018-07-26T11:45:40.370Z,2.97
2018-07-26T11:48:08.842Z,3.00
2018-07-26T11:50:37.293Z,2.60
2018-07-26T11:53:05.724Z,3.40
2018-07-26T11:55:34.603Z,2.77
2018-07-26T11:58:03.105Z,2.80
2018-07-26T12:00:31.546Z,3.17
2018-07-26T12:03:00.015Z,3.27
2018-07-26T12:05:28.471Z,3.53
2018-07-26T12:07:56.896Z,3.43
2018-07-26T12:10:25.391Z,3.10
2018-07-26T12:12:53.810Z,3.23
2018-07-26T12:15:22.261Z,3.70
2018-07-26T12:17:50.827Z,3.50
2018-07-26T12:20:18.862Z,3.20
2018-07-26T12:22:47.292Z,3.47
2018-07-26T12:25:15.762Z,3.30
2018-07-26T12:27:44.179Z,3.80
2018-07-26T12:30:13.261Z,3.47
2018-07-26T12:32:41.702Z,3.30
2018-07-26T12:35:09.850Z,3.90
2018-07-26T12:37:38.693Z,3.80
2018-07-26T12:40:07.155Z,3.10
2018-07-26T12:42:35.635Z,3.40
2018-07-26T12:45:03.781Z,3.80
2018-07-26T12:47:32.277Z,3.53
2018-07-26T12:50:00.670Z,3.57
2018-07-26T12:52:28.796Z,3.80
2018-07-26T12:54:57.297Z,3.73
2018-07-26T12:57:25.746Z,4.20
2018-07-26T12:59:54.207Z,3.90
2018-07-26T13:02:22.638Z,4.07
2018-07-26T13:04:51.130Z,3.60
2018-07-26T13:07:19.569Z,3.80
2018-07-26T13:09:48.004Z,3.60
2018-07-26T13:12:16.165Z,3.83
2018-07-26T13:14:45.101Z,4.70
2018-07-26T13:17:13.837Z,3.87
2018-07-26T13:19:42.282Z,3.30
2018-07-26T13:22:10.747Z,3.60
2018-07-26T13:24:39.201Z,3.20
2018-07-26T13:27:07.645Z,3.30
2018-07-26T13:29:36.112Z,3.80
2018-07-26T13:32:04.557Z,3.13
2018-07-26T13:34:32.684Z,3.77
2018-07-26T13:37:01.181Z,3.30
2018-07-26T13:39:29.674Z,3.67
2018-07-26T13:41:58.130Z,3.73
2018-07-26T13:44:26.545Z,4.10
2018-07-26T13:46:54.972Z,3.30
2018-07-26T13:49:23.393Z,3.00
2018-07-26T13:51:51.906Z,3.40
2018-07-26T13:54:20.322Z,3.90
2018-07-26T13:56:48.812Z,3.33
2018-07-26T13:59:17.236Z,3.50
2018-07-26T14:01:45.674Z,3.27
2018-07-26T14:04:14.109Z,4.23
2018-07-26T14:06:42.506Z,3.63
2018-07-26T14:09:12.289Z,4.00
2018-07-26T14:11:41.484Z,3.87
2018-07-26T14:14:10.407Z,3.50
2018-07-26T14:16:38.853Z,3.57
2018-07-26T14:19:08.059Z,3.53
2018-07-26T14:21:36.494Z,3.50
2018-07-26T14:24:12.439Z,3.13
2018-07-26T14:26:41.096Z,4.00
2018-07-26T14:29:09.261Z,3.67
2018-07-26T14:31:37.744Z,4.00
2018-07-26T14:34:06.206Z,4.13
2018-07-26T14:36:34.677Z,4.30
2018-07-26T14:39:03.293Z,3.93
2018-07-26T14:41:31.798Z,3.70
2018-07-26T14:44:00.225Z,4.10
2018-07-26T14:46:28.654Z,4.10
2018-07-26T14:48:56.801Z,3.83
2018-07-26T14:51:25.257Z,3.93
2018-07-26T14:53:54.692Z,3.50
2018-07-26T14:56:23.187Z,4.10
2018-07-26T14:58:51.898Z,4.33
2018-07-26T15:01:20.614Z,4.23
2018-07-26T15:03:49.151Z,3.53
2018-07-26T15:06:17.649Z,4.13
2018-07-26T15:08:46.126Z,3.40
2018-07-26T15:11:14.908Z,3.60
2018-07-26T15:13:43.563Z,3.67
2018-07-26T15:16:12.185Z,4.00
2018-07-26T15:18:40.989Z,3.33
2018-07-26T15:21:09.647Z,4.30
2018-07-26T15:23:37.960Z,4.13
2018-07-26T15:26:06.627Z,3.67
2018-07-26T15:28:35.168Z,3.60
2018-07-26T15:31:03.628Z,3.67
2018-07-26T15:33:32.342Z,11.27
2018-07-26T15:36:00.813Z,4.03
2018-07-26T15:38:29.284Z,3.63
2018-07-26T15:40:57.782Z,4.40
2018-07-26T15:43:26.429Z,3.53
2018-07-26T15:45:54.917Z,4.07
2018-07-26T15:48:23.382Z,4.00
2018-07-26T15:50:51.832Z,4.07
2018-07-26T15:53:20.275Z,3.43
2018-07-26T15:55:48.761Z,3.67
2018-07-26T15:58:17.260Z,4.33
2018-07-26T16:00:45.693Z,4.47
2018-07-26T16:03:14.151Z,4.20
2018-07-26T16:05:42.331Z,4.00
2018-07-26T16:08:10.799Z,4.30
2018-07-26T16:10:39.258Z,4.50
2018-07-26T16:13:15.200Z,4.43
2018-07-26T16:15:43.834Z,4.33
2018-07-26T16:18:12.473Z,3.90
2018-07-26T16:20:40.870Z,4.80
2018-07-26T16:23:09.333Z,4.40
2018-07-26T16:25:37.782Z,4.60
2018-07-26T16:28:06.283Z,4.40
2018-07-26T16:30:34.770Z,4.57
2018-07-26T16:33:03.246Z,4.90
2018-07-26T16:35:31.715Z,5.10
2018-07-26T16:38:00.158Z,4.73
2018-07-26T16:40:28.627Z,5.37
2018-07-26T16:42:57.341Z,5.37
2018-07-26T16:45:25.504Z,5.17
2018-07-26T16:47:53.930Z,5.03
2018-07-26T16:50:22.418Z,4.47
2018-07-26T16:52:50.949Z,5.43
2018-07-26T16:55:19.429Z,5.43
2018-07-26T16:57:47.955Z,5.00
2018-07-26T17:00:16.438Z,5.37
2018-07-26T17:02:44.885Z,4.60
2018-07-26T17:05:24.930Z,4.13
2018-07-26T17:07:53.405Z,5.20
2018-07-26T17:10:22.104Z,5.40
2018-07-26T17:12:50.665Z,4.30
2018-07-26T17:15:19.373Z,4.57
2018-07-26T17:17:47.521Z,5.10
2018-07-26T17:20:15.970Z,5.00
2018-07-26T17:22:45.414Z,4.93
2018-07-26T17:25:13.928Z,5.03
2018-07-26T17:27:42.037Z,5.00
2018-07-26T17:30:10.475Z,5.10
2018-07-26T17:32:38.926Z,5.27
2018-07-26T17:35:07.406Z,4.83
2018-07-26T17:37:35.931Z,4.60
2018-07-26T17:40:05.801Z,4.17
2018-07-26T17:42:34.217Z,4.90
2018-07-26T17:45:02.814Z,4.60
2018-07-26T17:47:31.216Z,4.13
2018-07-26T17:50:00.690Z,4.47
2018-07-26T17:52:28.849Z,5.30
2018-07-26T17:54:57.284Z,4.37
2018-07-26T17:57:25.729Z,4.07
2018-07-26T17:59:54.177Z,4.53
2018-07-26T18:02:22.641Z,4.27
2018-07-26T18:04:51.149Z,4.00
2018-07-26T18:07:20.611Z,4.33
2018-07-26T18:09:53.329Z,3.77
2018-07-26T18:12:21.843Z,4.10
2018-07-26T18:14:50.301Z,4.07
2018-07-26T18:17:19.006Z,4.27
2018-07-26T18:19:47.453Z,4.60
2018-07-26T18:22:15.873Z,4.47
2018-07-26T18:24:45.198Z,4.53
2018-07-26T18:27:13.673Z,4.00
2018-07-26T18:29:48.138Z,4.13
2018-07-26T18:32:16.657Z,3.77
2018-07-26T18:34:45.131Z,4.13
2018-07-26T18:37:13.574Z,3.47
2018-07-26T18:39:42.287Z,3.93
2018-07-26T18:42:10.846Z,4.07
2018-07-26T18:44:39.293Z,3.80
2018-07-26T18:47:07.768Z,3.80
2018-07-26T18:49:36.278Z,4.33
2018-07-26T18:52:04.394Z,4.00
2018-07-26T18:54:32.818Z,3.63
2018-07-26T18:57:01.322Z,4.90
2018-07-26T18:59:29.782Z,3.93
2018-07-26T19:01:58.313Z,4.10
2018-07-26T19:04:26.805Z,4.20
2018-07-26T19:06:55.282Z,4.10
2018-07-26T19:09:23.998Z,5.30
2018-07-26T19:11:52.473Z,5.00
2018-07-26T19:14:20.929Z,4.67
2018-07-26T19:16:49.389Z,4.20
2018-07-26T19:19:17.865Z,4.13
2018-07-26T19:21:46.305Z,4.33
2018-07-26T19:24:14.765Z,4.50
2018-07-26T19:26:43.205Z,5.03
2018-07-26T19:29:13.732Z,6.20
2018-07-26T19:31:42.198Z,5.80
2018-07-26T19:34:10.831Z,4.50
2018-07-26T19:36:40.431Z,4.53
2018-07-26T19:39:11.832Z,4.67
2018-07-26T19:41:40.725Z,3.60
2018-07-26T19:44:09.706Z,4.30
2018-07-26T19:46:38.281Z,4.90
2018-07-26T19:49:07.859Z,4.47
2018-07-26T19:51:36.337Z,4.70
2018-07-26T19:54:04.798Z,4.20
2018-07-26T19:56:33.430Z,4.40
2018-07-26T19:59:02.116Z,4.80
2018-07-26T20:01:30.585Z,4.50
2018-07-26T20:03:59.041Z,4.23
2018-07-26T20:06:28.597Z,4.90
2018-07-26T20:08:57.181Z,4.60
2018-07-26T20:11:25.617Z,4.60
2018-07-26T20:13:54.080Z,4.30
2018-07-26T20:16:22.508Z,4.40
2018-07-26T20:18:50.955Z,4.47
2018-07-26T20:21:19.389Z,4.70
2018-07-26T20:23:47.831Z,4.63
2018-07-26T20:26:16.254Z,4.87
2018-07-26T20:28:48.113Z,4.80
2018-07-26T20:31:16.654Z,4.33
2018-07-26T20:33:45.107Z,4.03
2018-07-26T20:36:13.716Z,4.37
2018-07-26T20:38:42.153Z,4.10
2018-07-26T20:41:10.282Z,4.30
2018-07-26T20:43:38.805Z,4.90
2018-07-26T20:46:07.362Z,5.10
2018-07-26T20:48:37.313Z,5.07
2018-07-26T20:51:06.761Z,4.53
2018-07-26T20:53:35.721Z,4.70
2018-07-26T20:56:05.550Z,4.30
2018-07-26T20:58:34.016Z,4.57
2018-07-26T21:01:02.490Z,4.90
2018-07-26T21:03:30.641Z,4.40
2018-07-26T21:05:59.102Z,4.47
2018-07-26T21:08:28.400Z,4.10
2018-07-26T21:10:57.087Z,4.97
2018-07-26T21:13:27.087Z,4.97
2018-07-26T21:15:55.806Z,4.63
2018-07-26T21:18:24.892Z,5.87
2018-07-26T21:20:53.309Z,5.13
2018-07-26T21:23:21.499Z,4.70
2018-07-26T21:25:49.968Z,5.40
2018-07-26T21:28:18.452Z,5.03
2018-07-26T21:30:46.898Z,4.70
2018-07-26T21:33:15.435Z,4.93
2018-07-26T21:35:43.918Z,4.60
2018-07-26T21:38:12.377Z,5.00
2018-07-26T21:40:40.588Z,4.70
2018-07-26T21:43:08.678Z,4.50
2018-07-26T21:45:37.120Z,4.43
2018-07-26T21:48:05.375Z,5.60
2018-07-26T21:50:35.191Z,5.00
2018-07-26T21:53:04.201Z,4.77
2018-07-26T21:55:33.981Z,4.90
2018-07-26T21:58:03.974Z,4.60
2018-07-26T22:00:45.914Z,4.80
2018-07-26T22:03:14.378Z,4.77
2018-07-26T22:05:42.886Z,5.40
2018-07-26T22:08:11.381Z,5.70
2018-07-26T22:10:39.858Z,5.10
2018-07-26T22:13:08.330Z,5.70
2018-07-26T22:15:36.850Z,5.10
2018-07-26T22:18:05.318Z,5.10
2018-07-26T22:20:33.869Z,5.27
2018-07-26T22:23:02.353Z,5.03
2018-07-26T22:25:30.825Z,5.13
2018-07-26T22:27:59.262Z,4.80
2018-07-26T22:30:27.735Z,4.90
2018-07-26T22:32:57.061Z,5.60
2018-07-26T22:35:25.555Z,5.33
2018-07-26T22:37:54.365Z,5.90
2018-07-26T22:40:22.938Z,5.13
2018-07-26T22:42:51.425Z,5.00
2018-07-26T22:45:20.113Z,4.87
2018-07-26T22:47:48.613Z,4.50
2018-07-26T22:50:17.065Z,4.77
2018-07-26T22:52:45.589Z,5.00
2018-07-26T22:55:14.047Z,4.87
2018-07-26T22:57:42.530Z,4.43
2018-07-26T23:00:11.079Z,5.00
2018-07-26T23:02:39.525Z,5.20
2018-07-26T23:05:08.083Z,4.90
2018-07-26T23:07:36.542Z,4.60
2018-07-26T23:10:06.501Z,5.70
2018-07-26T23:12:34.650Z,4.77
2018-07-26T23:15:03.150Z,4.97
2018-07-26T23:17:31.324Z,4.93
2018-07-26T23:19:59.793Z,4.47
2018-07-26T23:22:28.268Z,5.03
2018-07-26T23:24:56.709Z,5.50
2018-07-26T23:27:25.187Z,5.37
2018-07-26T23:29:53.665Z,4.90
2018-07-26T23:32:22.503Z,5.40
2018-07-26T23:34:50.994Z,5.00
2018-07-26T23:37:19.426Z,4.37
2018-07-26T23:39:47.989Z,5.13
2018-07-26T23:42:16.644Z,4.60
2018-07-26T23:44:45.105Z,4.67
2018-07-26T23:47:13.537Z,4.80
2018-07-26T23:49:43.031Z,5.13
2018-07-26T23:52:11.466Z,5.20
2018-07-26T23:54:39.929Z,4.97
2018-07-26T23:57:08.386Z,5.10
2018-07-26T23:59:36.817Z,4.67
